createdAt,value
2022-10-23T00:01:33.206Z,6.34
2022-10-23T00:04:01.226Z,6.32
2022-10-23T00:06:29.160Z,6.29
2022-10-23T00:08:56.737Z,6.29
2022-10-23T00:11:26.619Z,6.28
2022-10-23T00:14:01.024Z,6.28
2022-10-23T00:16:28.761Z,6.31
2022-10-23T00:18:55.575Z,6.32
2022-10-23T00:21:23.856Z,6.35
2022-10-23T00:23:50.700Z,6.28
2022-10-23T00:26:17.544Z,6.28
2022-10-23T00:28:46.485Z,6.24
2022-10-23T00:31:13.722Z,6.26
2022-10-23T00:33:41.189Z,6.25
2022-10-23T00:36:09.220Z,6.26
2022-10-23T00:38:36.941Z,6.18
2022-10-23T00:41:05.556Z,6.24
2022-10-23T00:43:33.637Z,6.29
2022-10-23T00:46:00.771Z,6.34
2022-10-23T00:48:28.933Z,6.36
2022-10-23T00:50:56.700Z,6.44
2022-10-23T00:53:24.948Z,6.43
2022-10-23T00:55:54.059Z,6.40
2022-10-23T00:58:21.431Z,6.55
2022-10-23T01:00:54.904Z,6.61
2022-10-23T01:03:25.535Z,6.66
2022-10-23T01:06:07.434Z,6.68
2022-10-23T01:08:34.128Z,6.61
2022-10-23T01:11:14.933Z,6.56
2022-10-23T01:13:52.229Z,6.50
2022-10-23T01:16:27.008Z,6.47
2022-10-23T01:19:04.992Z,6.38
2022-10-23T01:22:02.904Z,6.41
2022-10-23T01:24:58.293Z,6.50
2022-10-23T01:27:36.640Z,6.50
2022-10-23T01:30:14.217Z,6.51
2022-10-23T01:33:00.352Z,6.54
2022-10-23T01:35:37.859Z,6.57
2022-10-23T01:38:25.489Z,6.53
2022-10-23T01:41:07.364Z,6.52
2022-10-23T01:43:44.116Z,6.48
2022-10-23T01:46:15.017Z,6.49
2022-10-23T01:48:46.067Z,6.47
2022-10-23T01:51:15.171Z,6.41
2022-10-23T01:53:45.236Z,6.44
2022-10-23T01:56:19.591Z,6.39
2022-10-23T01:58:50.349Z,6.22
2022-10-23T02:01:21.002Z,6.26
2022-10-23T02:03:52.472Z,6.19
2022-10-23T02:06:19.632Z,6.13
2022-10-23T02:08:47.021Z,6.10
2022-10-23T02:11:16.851Z,6.02
2022-10-23T02:13:49.091Z,5.96
2022-10-23T02:16:31.275Z,5.95
2022-10-23T02:19:29.225Z,5.95
2022-10-23T02:22:12.417Z,5.97
2022-10-23T02:24:48.169Z,5.96
2022-10-23T02:27:31.863Z,5.95
2022-10-23T02:30:13.698Z,5.95
2022-10-23T02:32:47.608Z,5.97
2022-10-23T02:35:21.225Z,5.95
2022-10-23T02:37:55.046Z,5.98
2022-10-23T02:40:26.578Z,5.98
2022-10-23T02:43:14.259Z,5.97
2022-10-23T02:46:08.469Z,6.04
2022-10-23T02:48:47.887Z,6.02
2022-10-23T02:51:38.573Z,5.97
2022-10-23T02:54:20.583Z,5.95
2022-10-23T02:57:03.534Z,5.90
2022-10-23T02:59:42.469Z,5.82
2022-10-23T03:02:15.761Z,5.84
2022-10-23T03:04:45.161Z,5.85
2022-10-23T03:07:14.024Z,5.91
2022-10-23T03:09:42.516Z,5.89
2022-10-23T03:12:09.306Z,5.92
2022-10-23T03:14:36.908Z,5.91
2022-10-23T03:17:05.274Z,6.00
2022-10-23T03:19:32.192Z,6.00
2022-10-23T03:21:59.311Z,5.96
2022-10-23T03:24:26.105Z,6.08
2022-10-23T03:26:52.953Z,6.05
2022-10-23T03:29:29.334Z,6.05
2022-10-23T03:31:56.111Z,6.05
2022-10-23T03:34:23.745Z,5.95
2022-10-23T03:36:52.968Z,5.98
2022-10-23T03:39:20.887Z,5.93
2022-10-23T03:41:48.116Z,5.96
2022-10-23T03:44:16.589Z,5.93
2022-10-23T03:46:45.097Z,5.88
2022-10-23T03:49:11.896Z,5.84
2022-10-23T03:51:44.009Z,5.87
2022-10-23T03:54:11.315Z,5.87
2022-10-23T03:56:38.347Z,5.89
2022-10-23T03:59:07.391Z,5.89
2022-10-23T04:01:34.236Z,5.84
2022-10-23T04:04:01.185Z,5.83
2022-10-23T04:06:28.351Z,5.81
2022-10-23T04:08:57.417Z,5.70
2022-10-23T04:11:24.143Z,5.71
2022-10-23T04:13:50.975Z,5.69
2022-10-23T04:16:18.150Z,5.67
2022-10-23T04:18:44.922Z,5.72
2022-10-23T04:21:12.485Z,5.74
2022-10-23T04:23:39.769Z,5.75
2022-10-23T04:26:12.412Z,5.76
2022-10-23T04:28:39.481Z,5.73
2022-10-23T04:31:06.300Z,5.64
2022-10-23T04:33:33.366Z,5.58
2022-10-23T04:36:00.091Z,5.57
2022-10-23T04:38:26.852Z,5.51
2022-10-23T04:40:53.575Z,5.45
2022-10-23T04:43:22.081Z,5.48
2022-10-23T04:45:50.213Z,5.34
2022-10-23T04:48:17.042Z,5.43
2022-10-23T04:51:09.977Z,5.47
2022-10-23T04:53:54.963Z,5.46
2022-10-23T04:56:40.285Z,5.53
2022-10-23T04:59:11.121Z,5.51
2022-10-23T05:01:39.663Z,5.48
2022-10-23T05:04:08.064Z,5.55
2022-10-23T05:06:46.049Z,5.63
2022-10-23T05:09:22.446Z,5.57
2022-10-23T05:12:00.058Z,5.64
2022-10-23T05:14:26.808Z,5.74
2022-10-23T05:17:05.047Z,5.76
2022-10-23T05:19:39.743Z,5.76
2022-10-23T05:22:07.096Z,5.81
2022-10-23T05:24:49.738Z,5.69
2022-10-23T05:27:20.660Z,5.53
2022-10-23T05:29:47.490Z,5.72
2022-10-23T05:32:16.876Z,5.75
2022-10-23T05:34:44.196Z,5.78
2022-10-23T05:37:13.248Z,5.81
2022-10-23T05:39:40.666Z,5.85
2022-10-23T05:42:12.382Z,5.78
2022-10-23T05:44:40.287Z,5.81
2022-10-23T05:47:18.379Z,5.88
2022-10-23T05:49:45.052Z,5.85
2022-10-23T05:52:20.209Z,5.88
2022-10-23T05:54:52.627Z,5.93
2022-10-23T05:57:37.995Z,5.79
2022-10-23T06:00:09.570Z,5.72
2022-10-23T06:02:42.454Z,5.68
2022-10-23T06:05:22.573Z,5.70
2022-10-23T06:08:10.647Z,5.71
2022-10-23T06:10:38.216Z,5.74
2022-10-23T06:13:08.031Z,5.82
2022-10-23T06:15:35.118Z,5.85
2022-10-23T06:18:11.412Z,5.70
2022-10-23T06:20:48.896Z,5.64
2022-10-23T06:23:23.406Z,5.63
2022-10-23T06:26:20.057Z,5.61
2022-10-23T06:29:02.732Z,5.62
2022-10-23T06:31:29.714Z,5.60
2022-10-23T06:33:59.272Z,5.64
2022-10-23T06:36:27.535Z,5.57
2022-10-23T06:39:01.211Z,5.68
2022-10-23T06:41:47.923Z,5.74
2022-10-23T06:44:34.579Z,5.68
2022-10-23T06:47:10.733Z,5.68
2022-10-23T06:49:56.500Z,5.76
2022-10-23T06:52:45.297Z,5.85
2022-10-23T06:55:10.670Z,5.96
2022-10-23T06:57:39.208Z,6.09
2022-10-23T07:00:08.425Z,6.13
2022-10-23T07:02:45.769Z,6.13
2022-10-23T07:05:14.073Z,6.18
2022-10-23T07:07:43.147Z,6.30
2022-10-23T07:10:11.381Z,6.32
2022-10-23T07:12:42.699Z,6.52
2022-10-23T07:15:34.766Z,6.69
2022-10-23T07:18:03.779Z,6.99
2022-10-23T07:20:49.496Z,7.24
2022-10-23T07:23:16.657Z,7.22
2022-10-23T07:25:44.537Z,7.32
2022-10-23T07:28:19.552Z,7.45
2022-10-23T07:30:56.632Z,7.37
2022-10-23T07:33:24.284Z,7.38
2022-10-23T07:36:00.771Z,7.39
2022-10-23T07:38:28.739Z,7.51
2022-10-23T07:40:58.162Z,7.62
2022-10-23T07:43:26.212Z,7.55
2022-10-23T07:45:53.862Z,7.64
2022-10-23T07:48:27.566Z,7.95
2022-10-23T07:51:03.541Z,8.00
2022-10-23T07:53:31.382Z,8.05
2022-10-23T07:56:17.721Z,8.06
2022-10-23T07:59:14.040Z,8.20
2022-10-23T08:01:44.259Z,8.31
2022-10-23T08:04:11.529Z,8.49
2022-10-23T08:06:46.686Z,8.63
2022-10-23T08:09:13.627Z,8.78
2022-10-23T08:11:42.302Z,8.97
2022-10-23T08:14:10.825Z,9.05
2022-10-23T08:16:39.657Z,9.04
2022-10-23T08:19:07.846Z,9.27
2022-10-23T08:21:38.196Z,9.42
2022-10-23T08:24:05.393Z,9.57
2022-10-23T08:26:32.329Z,9.74
2022-10-23T08:28:59.712Z,9.83
2022-10-23T08:31:28.073Z,9.84
2022-10-23T08:34:27.808Z,9.97
2022-10-23T08:36:55.488Z,10.06
2022-10-23T08:39:23.576Z,10.08
2022-10-23T08:42:31.574Z,10.29
2022-10-23T08:45:12.160Z,10.54
2022-10-23T08:47:44.663Z,10.77
2022-10-23T08:50:41.174Z,10.88
2022-10-23T08:53:26.125Z,11.04
2022-10-23T08:56:04.897Z,11.12
2022-10-23T08:58:40.643Z,11.18
2022-10-23T09:01:33.128Z,11.01
2022-10-23T09:04:00.602Z,11.04
2022-10-23T09:06:36.343Z,11.30
2022-10-23T09:09:20.595Z,11.48
2022-10-23T09:12:07.585Z,11.52
2022-10-23T09:15:11.902Z,11.88
2022-10-23T09:17:42.342Z,11.97
2022-10-23T09:20:22.259Z,12.12
2022-10-23T09:22:53.208Z,12.22
2022-10-23T09:25:25.950Z,12.39
2022-10-23T09:27:56.689Z,12.53
2022-10-23T09:30:32.048Z,12.80
2022-10-23T09:32:59.941Z,12.98
2022-10-23T09:35:33.194Z,13.13
2022-10-23T09:38:00.859Z,13.23
2022-10-23T09:40:46.054Z,13.41
2022-10-23T09:43:23.273Z,13.38
2022-10-23T09:45:58.841Z,13.41
2022-10-23T09:48:26.057Z,13.59
2022-10-23T09:50:52.636Z,13.84
2022-10-23T09:53:48.804Z,13.95
2022-10-23T09:56:40.227Z,14.30
2022-10-23T09:59:28.757Z,14.60
2022-10-23T10:02:02.279Z,14.99
2022-10-23T10:04:38.715Z,15.29
2022-10-23T10:07:17.950Z,15.56
2022-10-23T10:09:44.885Z,15.95
2022-10-23T10:12:30.627Z,16.52
2022-10-23T10:15:15.885Z,16.89
2022-10-23T10:18:14.947Z,17.25
2022-10-23T10:20:55.753Z,17.64
2022-10-23T10:23:45.732Z,17.96
2022-10-23T10:26:31.015Z,18.43
2022-10-23T10:29:30.821Z,18.84
2022-10-23T10:32:16.495Z,19.13
2022-10-23T10:34:59.295Z,19.32
2022-10-23T10:38:04.581Z,19.47
2022-10-23T10:40:45.335Z,19.95
2022-10-23T10:43:40.370Z,20.04
2022-10-23T10:46:25.788Z,20.21
2022-10-23T10:49:04.672Z,20.35
2022-10-23T10:51:54.580Z,20.23
2022-10-23T10:54:44.111Z,20.05
2022-10-23T10:57:46.713Z,20.05
2022-10-23T11:00:20.173Z,20.14
2022-10-23T11:02:49.867Z,20.50
2022-10-23T11:05:34.920Z,20.46
2022-10-23T11:08:13.665Z,20.46
2022-10-23T11:10:48.153Z,20.50
2022-10-23T11:13:24.558Z,20.61
2022-10-23T11:15:56.875Z,20.71
2022-10-23T11:18:28.622Z,20.85
2022-10-23T11:20:59.386Z,20.99
2022-10-23T11:24:00.634Z,20.99
2022-10-23T11:26:40.114Z,21.08
2022-10-23T11:29:12.886Z,21.06
2022-10-23T11:32:05.824Z,20.77
2022-10-23T11:34:44.317Z,20.78
2022-10-23T11:37:16.815Z,20.45
2022-10-23T11:40:16.763Z,20.41
2022-10-23T11:42:43.698Z,20.50
2022-10-23T11:45:26.231Z,20.53
2022-10-23T11:48:00.177Z,20.12
2022-10-23T11:50:32.005Z,20.57
2022-10-23T11:53:21.207Z,20.49
2022-10-23T11:56:21.573Z,20.42
2022-10-23T11:58:51.642Z,20.69
2022-10-23T12:01:36.995Z,20.77
2022-10-23T12:04:14.342Z,20.98
2022-10-23T12:06:49.684Z,21.42
2022-10-23T12:09:24.769Z,21.65
2022-10-23T12:12:09.774Z,21.54
2022-10-23T12:14:37.992Z,21.28
2022-10-23T12:17:37.496Z,21.37
2022-10-23T12:20:20.949Z,21.44
2022-10-23T12:23:36.564Z,21.45
2022-10-23T12:26:59.401Z,21.83
2022-10-23T12:29:41.119Z,22.18
2022-10-23T12:32:47.118Z,22.56
2022-10-23T12:35:47.643Z,22.92
2022-10-23T12:38:32.577Z,23.03
2022-10-23T12:41:02.672Z,23.03
2022-10-23T12:43:36.497Z,23.03
2022-10-23T12:46:26.895Z,23.22
2022-10-23T12:48:55.074Z,23.37
2022-10-23T12:51:39.912Z,23.09
2022-10-23T12:54:22.919Z,22.99
2022-10-23T12:56:50.185Z,22.73
2022-10-23T12:59:39.394Z,22.33
2022-10-23T13:02:38.770Z,21.93
2022-10-23T13:05:08.050Z,21.75
2022-10-23T13:07:42.609Z,21.71
2022-10-23T13:10:18.777Z,21.49
2022-10-23T13:13:00.423Z,21.39
2022-10-23T13:15:40.376Z,21.28
2022-10-23T13:18:08.948Z,21.20
2022-10-23T13:20:38.563Z,21.21
2022-10-23T13:23:22.106Z,21.20
2022-10-23T13:26:23.393Z,21.23
2022-10-23T13:28:50.884Z,20.87
2022-10-23T13:31:17.509Z,20.99
2022-10-23T13:34:00.226Z,21.45
2022-10-23T13:36:29.420Z,21.84
2022-10-23T13:39:12.466Z,22.01
2022-10-23T13:41:46.906Z,22.13
2022-10-23T13:44:19.195Z,22.11
2022-10-23T13:46:46.507Z,22.02
2022-10-23T13:49:13.215Z,22.20
2022-10-23T13:51:48.620Z,22.48
2022-10-23T13:54:19.076Z,22.49
2022-10-23T13:56:46.611Z,22.55
2022-10-23T13:59:13.880Z,22.64
2022-10-23T14:01:41.641Z,22.74
2022-10-23T14:04:09.580Z,22.58
2022-10-23T14:06:37.556Z,22.44
2022-10-23T14:09:10.628Z,22.56
2022-10-23T14:11:37.325Z,22.71
2022-10-23T14:14:03.880Z,22.72
2022-10-23T14:16:30.629Z,22.77
2022-10-23T14:18:57.551Z,22.70
2022-10-23T14:21:25.176Z,22.46
2022-10-23T14:23:52.991Z,22.42
2022-10-23T14:26:23.507Z,22.44
2022-10-23T14:28:53.296Z,22.54
2022-10-23T14:31:20.851Z,22.56
2022-10-23T14:33:52.183Z,22.52
2022-10-23T14:38:55.740Z,22.82
2022-10-23T14:41:23.183Z,22.69
2022-10-23T14:43:49.988Z,22.73
2022-10-23T14:46:18.921Z,22.76
2022-10-23T14:48:47.206Z,22.78
2022-10-23T14:51:27.930Z,22.79
2022-10-23T14:54:05.534Z,22.68
2022-10-23T14:56:35.641Z,22.71
2022-10-23T14:59:02.949Z,22.76
2022-10-23T15:01:42.423Z,22.74
2022-10-23T15:04:14.605Z,22.65
2022-10-23T15:06:42.013Z,22.51
2022-10-23T15:09:08.852Z,22.26
2022-10-23T15:11:35.594Z,22.04
2022-10-23T15:14:02.317Z,21.76
2022-10-23T15:16:29.079Z,21.50
2022-10-23T15:18:55.641Z,21.19
2022-10-23T15:21:23.573Z,20.90
2022-10-23T15:23:54.507Z,20.55
2022-10-23T15:26:23.449Z,20.29
2022-10-23T15:28:55.156Z,20.03
2022-10-23T15:31:30.807Z,19.81
2022-10-23T15:33:59.519Z,19.57
2022-10-23T15:36:27.116Z,19.32
2022-10-23T15:38:53.805Z,19.07
2022-10-23T15:41:35.478Z,18.76
2022-10-23T15:44:03.379Z,18.58
2022-10-23T15:46:34.888Z,18.28
2022-10-23T15:49:07.176Z,18.01
2022-10-23T15:51:36.626Z,17.94
2022-10-23T15:54:05.965Z,17.81
2022-10-23T15:59:35.097Z,17.50
2022-10-23T16:02:02.260Z,17.38
2022-10-23T16:04:29.094Z,17.22
2022-10-23T16:06:56.878Z,17.04
2022-10-23T16:09:24.349Z,16.92
2022-10-23T16:11:52.298Z,16.80
2022-10-23T16:14:20.755Z,16.63
2022-10-23T16:16:48.731Z,16.37
2022-10-23T16:19:15.622Z,15.82
2022-10-23T16:21:42.651Z,15.80
2022-10-23T16:24:10.014Z,15.83
2022-10-23T16:26:38.218Z,15.81
2022-10-23T16:29:07.819Z,15.52
2022-10-23T16:31:35.522Z,15.24
2022-10-23T16:34:04.708Z,15.29
2022-10-23T16:36:31.622Z,15.30
2022-10-23T16:39:20.204Z,15.32
2022-10-23T16:42:06.015Z,15.32
2022-10-23T16:44:58.123Z,15.28
2022-10-23T16:47:25.185Z,15.14
2022-10-23T16:49:52.093Z,15.13
2022-10-23T16:52:18.926Z,14.99
2022-10-23T16:54:45.687Z,14.95
2022-10-23T16:57:12.401Z,14.88
2022-10-23T16:59:39.465Z,14.84
2022-10-23T17:02:06.837Z,14.55
2022-10-23T17:04:33.953Z,14.52
2022-10-23T17:07:00.588Z,14.28
2022-10-23T17:09:31.187Z,14.23
2022-10-23T17:12:00.100Z,14.14
2022-10-23T17:14:30.285Z,13.99
2022-10-23T17:17:01.935Z,13.96
2022-10-23T17:19:47.048Z,13.90
2022-10-23T17:22:15.304Z,13.88
2022-10-23T17:24:45.181Z,13.89
2022-10-23T17:27:14.400Z,13.75
2022-10-23T17:29:41.118Z,13.78
2022-10-23T17:32:07.926Z,13.77
2022-10-23T17:34:34.814Z,13.80
2022-10-23T17:37:01.495Z,13.78
2022-10-23T17:39:29.635Z,13.75
2022-10-23T17:41:56.729Z,13.71
2022-10-23T17:44:23.356Z,13.40
2022-10-23T17:46:54.821Z,12.97
2022-10-23T17:49:22.731Z,13.00
2022-10-23T17:51:57.161Z,12.77
2022-10-23T17:54:25.879Z,12.64
2022-10-23T17:56:52.606Z,12.40
2022-10-23T17:59:19.775Z,12.40
2022-10-23T18:01:48.324Z,12.40
2022-10-23T18:04:16.549Z,12.60
2022-10-23T18:06:49.011Z,12.71
2022-10-23T18:09:16.707Z,12.88
2022-10-23T18:11:48.031Z,12.80
2022-10-23T18:14:17.010Z,12.72
2022-10-23T18:16:45.641Z,12.76
2022-10-23T18:19:13.238Z,12.68
2022-10-23T18:21:40.262Z,12.27
2022-10-23T18:24:07.102Z,12.40
2022-10-23T18:26:35.183Z,12.34
2022-10-23T18:29:07.170Z,12.16
2022-10-23T18:31:35.469Z,12.12
2022-10-23T18:34:07.896Z,12.11
2022-10-23T18:36:40.678Z,12.06
2022-10-23T18:39:11.827Z,12.12
2022-10-23T18:41:41.425Z,12.29
2022-10-23T18:44:09.089Z,12.32
2022-10-23T18:46:36.449Z,12.34
2022-10-23T18:49:04.064Z,12.48
2022-10-23T18:51:34.333Z,12.56
2022-10-23T18:54:08.397Z,12.51
2022-10-23T18:56:36.095Z,12.53
2022-10-23T18:59:06.633Z,12.51
2022-10-23T19:01:34.453Z,12.40
2022-10-23T19:04:02.105Z,12.18
2022-10-23T19:06:30.240Z,12.04
2022-10-23T19:08:57.076Z,11.91
2022-10-23T19:11:26.045Z,11.89
2022-10-23T19:13:52.904Z,11.77
2022-10-23T19:16:24.041Z,11.86
2022-10-23T19:18:55.681Z,11.93
2022-10-23T19:21:25.272Z,11.95
2022-10-23T19:23:52.741Z,11.79
2022-10-23T19:26:19.577Z,11.94
2022-10-23T19:28:49.160Z,11.94
2022-10-23T19:31:16.090Z,11.92
2022-10-23T19:33:42.926Z,11.88
2022-10-23T19:36:13.967Z,11.82
2022-10-23T19:38:42.186Z,11.79
2022-10-23T19:41:09.238Z,11.60
2022-10-23T19:43:37.708Z,11.45
2022-10-23T19:46:09.270Z,11.38
2022-10-23T19:48:42.531Z,11.34
2022-10-23T19:51:09.584Z,11.28
2022-10-23T19:53:36.634Z,11.14
2022-10-23T19:56:04.240Z,11.12
2022-10-23T19:58:31.201Z,11.01
2022-10-23T20:00:58.027Z,10.97
2022-10-23T20:03:24.884Z,10.97
2022-10-23T20:05:51.586Z,11.13
2022-10-23T20:08:18.328Z,11.21
2022-10-23T20:10:47.937Z,11.27
2022-10-23T20:13:19.831Z,10.99
2022-10-23T20:15:47.110Z,10.95
2022-10-23T20:18:13.947Z,10.92
2022-10-23T20:20:43.543Z,10.85
2022-10-23T20:23:10.304Z,10.83
2022-10-23T20:25:37.133Z,10.79
2022-10-23T20:28:04.061Z,10.71
2022-10-23T20:30:30.896Z,10.81
2022-10-23T20:32:57.927Z,10.74
2022-10-23T20:35:24.624Z,10.77
2022-10-23T20:37:51.348Z,10.81
2022-10-23T20:40:18.117Z,10.79
2022-10-23T20:42:44.845Z,10.74
2022-10-23T20:45:11.559Z,10.66
2022-10-23T20:47:38.307Z,10.67
2022-10-23T20:50:05.471Z,10.64
2022-10-23T20:54:59.929Z,10.51
2022-10-23T20:57:26.639Z,10.55
2022-10-23T20:59:53.488Z,10.55
2022-10-23T21:02:20.323Z,10.43
2022-10-23T21:04:47.857Z,10.50
2022-10-23T21:07:14.534Z,10.31
2022-10-23T21:09:41.255Z,10.18
2022-10-23T21:12:09.149Z,10.17
2022-10-23T21:14:36.378Z,10.13
2022-10-23T21:17:03.326Z,10.17
2022-10-23T21:19:30.012Z,10.16
2022-10-23T21:21:56.749Z,10.15
2022-10-23T21:24:24.621Z,10.12
2022-10-23T21:26:51.732Z,10.09
2022-10-23T21:29:19.725Z,10.04
2022-10-23T21:31:59.255Z,10.02
2022-10-23T21:34:26.946Z,10.04
2022-10-23T21:39:41.937Z,9.54
2022-10-23T21:42:08.792Z,9.51
2022-10-23T21:44:35.713Z,9.65
2022-10-23T21:47:02.441Z,9.62
2022-10-23T21:49:29.191Z,9.63
2022-10-23T21:51:55.939Z,9.59
2022-10-23T21:54:22.862Z,9.67
2022-10-23T21:56:53.558Z,9.68
2022-10-23T21:59:28.961Z,9.59
2022-10-23T22:01:58.910Z,9.54
2022-10-23T22:04:25.746Z,9.57
2022-10-23T22:06:53.185Z,9.57
2022-10-23T22:09:21.236Z,9.60
2022-10-23T22:11:54.565Z,9.59
2022-10-23T22:14:22.149Z,9.66
2022-10-23T22:16:49.610Z,9.66
2022-10-23T22:19:18.012Z,9.64
2022-10-23T22:21:45.453Z,9.60
2022-10-23T22:24:12.389Z,9.54
2022-10-23T22:26:41.987Z,9.53
2022-10-23T22:29:15.418Z,9.57
2022-10-23T22:31:45.562Z,9.54
2022-10-23T22:34:27.210Z,9.63
2022-10-23T22:37:07.702Z,9.69
2022-10-23T22:39:34.425Z,9.75
2022-10-23T22:42:01.154Z,9.81
2022-10-23T22:44:27.925Z,9.73
2022-10-23T22:46:54.629Z,9.68
2022-10-23T22:49:21.463Z,9.61
2022-10-23T22:51:48.163Z,9.58
2022-10-23T22:54:14.866Z,9.57
2022-10-23T22:56:42.517Z,9.54
2022-10-23T22:59:09.330Z,9.54
2022-10-23T23:01:42.559Z,9.57
2022-10-23T23:04:26.054Z,9.57
2022-10-23T23:06:58.070Z,9.51
2022-10-23T23:09:24.834Z,9.52
2022-10-23T23:11:52.534Z,9.49
2022-10-23T23:14:23.512Z,9.48
2022-10-23T23:16:52.416Z,9.48
2022-10-23T23:19:19.243Z,9.46
2022-10-23T23:21:45.995Z,9.43
2022-10-23T23:24:12.779Z,9.51
2022-10-23T23:26:40.041Z,9.53
2022-10-23T23:29:06.728Z,9.51
2022-10-23T23:31:33.497Z,9.55
2022-10-23T23:34:00.180Z,9.49
2022-10-23T23:36:28.105Z,9.49
2022-10-23T23:38:56.411Z,9.42
2022-10-23T23:41:24.627Z,9.36
2022-10-23T23:43:53.943Z,9.37
2022-10-23T23:46:20.657Z,9.33
2022-10-23T23:48:49.403Z,9.38
2022-10-23T23:51:22.694Z,9.41
2022-10-23T23:53:50.312Z,9.41
2022-10-23T23:56:18.266Z,9.49
2022-10-23T23:58:45.100Z,9.48
